sensor_id;sensor_type;location;lat;lon;timestamp;P1;durP1;ratioP1;P2;durP2;ratioP2
17796;SDS011;55596;53.554;9.916;2024-03-22T00:01:09;16.30;;;12.20;;
17796;SDS011;55596;53.554;9.916;2024-03-22T00:03:35;20.10;;;12.20;;
17796;SDS011;55596;53.554;9.916;2024-03-22T00:06:02;19.50;;;12.33;;
17796;SDS011;55596;53.554;9.916;2024-03-22T00:08:28;25.07;;;12.87;;
17796;SDS011;55596;53.554;9.916;2024-03-22T00:10:54;16.07;;;11.50;;
17796;SDS011;55596;53.554;9.916;2024-03-22T00:13:20;15.53;;;12.10;;
17796;SDS011;55596;53.554;9.916;2024-03-22T00:15:47;15.07;;;11.57;;
17796;SDS011;55596;53.554;9.916;2024-03-22T00:18:14;18.17;;;12.40;;
17796;SDS011;55596;53.554;9.916;2024-03-22T00:20:40;22.60;;;13.00;;
17796;SDS011;55596;53.554;9.916;2024-03-22T00:23:06;15.87;;;11.30;;
17796;SDS011;55596;53.554;9.916;2024-03-22T00:25:33;18.50;;;12.40;;
17796;SDS011;55596;53.554;9.916;2024-03-22T00:27:58;20.13;;;12.03;;
17796;SDS011;55596;53.554;9.916;2024-03-22T00:30:25;16.60;;;12.03;;
17796;SDS011;55596;53.554;9.916;2024-03-22T00:32:51;15.73;;;11.90;;
17796;SDS011;55596;53.554;9.916;2024-03-22T00:35:19;16.10;;;11.47;;
17796;SDS011;55596;53.554;9.916;2024-03-22T00:37:45;21.13;;;12.10;;
17796;SDS011;55596;53.554;9.916;2024-03-22T00:40:12;17.10;;;12.27;;
17796;SDS011;55596;53.554;9.916;2024-03-22T00:42:38;18.37;;;12.20;;
17796;SDS011;55596;53.554;9.916;2024-03-22T00:45:05;18.20;;;12.43;;
17796;SDS011;55596;53.554;9.916;2024-03-22T00:47:31;19.33;;;12.17;;
17796;SDS011;55596;53.554;9.916;2024-03-22T00:49:58;18.47;;;12.87;;
17796;SDS011;55596;53.554;9.916;2024-03-22T00:52:25;23.13;;;12.83;;
17796;SDS011;55596;53.554;9.916;2024-03-22T00:54:51;19.07;;;12.20;;
17796;SDS011;55596;53.554;9.916;2024-03-22T00:57:17;15.47;;;11.70;;
17796;SDS011;55596;53.554;9.916;2024-03-22T00:59:44;19.87;;;12.73;;
17796;SDS011;55596;53.554;9.916;2024-03-22T01:02:09;16.73;;;12.03;;
17796;SDS011;55596;53.554;9.916;2024-03-22T01:04:36;16.67;;;12.43;;
17796;SDS011;55596;53.554;9.916;2024-03-22T01:07:02;15.47;;;11.53;;
17796;SDS011;55596;53.554;9.916;2024-03-22T01:09:30;19.60;;;12.30;;
17796;SDS011;55596;53.554;9.916;2024-03-22T01:11:56;18.33;;;12.27;;
17796;SDS011;55596;53.554;9.916;2024-03-22T01:14:23;14.93;;;11.77;;
17796;SDS011;55596;53.554;9.916;2024-03-22T01:16:49;18.33;;;12.00;;
17796;SDS011;55596;53.554;9.916;2024-03-22T01:19:15;21.70;;;13.07;;
17796;SDS011;55596;53.554;9.916;2024-03-22T01:21:41;17.40;;;12.00;;
17796;SDS011;55596;53.554;9.916;2024-03-22T01:24:08;21.27;;;12.10;;
17796;SDS011;55596;53.554;9.916;2024-03-22T01:26:35;18.03;;;12.50;;
17796;SDS011;55596;53.554;9.916;2024-03-22T01:29:01;20.07;;;13.57;;
17796;SDS011;55596;53.554;9.916;2024-03-22T01:31:27;20.07;;;13.37;;
17796;SDS011;55596;53.554;9.916;2024-03-22T01:33:54;18.43;;;13.03;;
17796;SDS011;55596;53.554;9.916;2024-03-22T01:36:19;17.13;;;13.17;;
17796;SDS011;55596;53.554;9.916;2024-03-22T01:38:46;17.60;;;13.47;;
17796;SDS011;55596;53.554;9.916;2024-03-22T01:41:12;19.50;;;14.37;;
17796;SDS011;55596;53.554;9.916;2024-03-22T01:43:41;21.97;;;13.63;;
17796;SDS011;55596;53.554;9.916;2024-03-22T01:46:06;19.27;;;13.97;;
17796;SDS011;55596;53.554;9.916;2024-03-22T01:48:34;28.13;;;15.57;;
17796;SDS011;55596;53.554;9.916;2024-03-22T01:50:59;21.97;;;15.80;;
17796;SDS011;55596;53.554;9.916;2024-03-22T01:53:26;24.80;;;17.13;;
17796;SDS011;55596;53.554;9.916;2024-03-22T01:55:52;23.30;;;16.90;;
17796;SDS011;55596;53.554;9.916;2024-03-22T01:58:19;28.00;;;17.13;;
17796;SDS011;55596;53.554;9.916;2024-03-22T02:00:48;23.93;;;16.87;;
17796;SDS011;55596;53.554;9.916;2024-03-22T02:03:15;22.43;;;16.80;;
17796;SDS011;55596;53.554;9.916;2024-03-22T02:05:41;22.07;;;17.47;;
17796;SDS011;55596;53.554;9.916;2024-03-22T02:08:08;22.83;;;16.80;;
17796;SDS011;55596;53.554;9.916;2024-03-22T02:10:33;25.37;;;17.73;;
17796;SDS011;55596;53.554;9.916;2024-03-22T02:13:00;22.80;;;16.57;;
17796;SDS011;55596;53.554;9.916;2024-03-22T02:15:26;27.60;;;18.27;;
17796;SDS011;55596;53.554;9.916;2024-03-22T02:17:54;24.50;;;17.67;;
17796;SDS011;55596;53.554;9.916;2024-03-22T02:20:20;28.17;;;19.03;;
17796;SDS011;55596;53.554;9.916;2024-03-22T02:22:47;21.80;;;18.30;;
17796;SDS011;55596;53.554;9.916;2024-03-22T02:25:14;27.33;;;19.13;;
17796;SDS011;55596;53.554;9.916;2024-03-22T02:27:40;26.50;;;20.03;;
17796;SDS011;55596;53.554;9.916;2024-03-22T02:30:07;26.83;;;19.93;;
17796;SDS011;55596;53.554;9.916;2024-03-22T02:32:34;24.77;;;18.70;;
17796;SDS011;55596;53.554;9.916;2024-03-22T02:35:00;26.00;;;19.03;;
17796;SDS011;55596;53.554;9.916;2024-03-22T02:37:26;25.53;;;19.90;;
17796;SDS011;55596;53.554;9.916;2024-03-22T02:39:53;23.60;;;19.97;;
17796;SDS011;55596;53.554;9.916;2024-03-22T02:42:21;25.17;;;20.03;;
17796;SDS011;55596;53.554;9.916;2024-03-22T02:44:47;31.40;;;19.20;;
17796;SDS011;55596;53.554;9.916;2024-03-22T02:47:13;26.80;;;21.97;;
17796;SDS011;55596;53.554;9.916;2024-03-22T02:49:40;27.37;;;20.87;;
17796;SDS011;55596;53.554;9.916;2024-03-22T02:52:07;34.10;;;22.10;;
17796;SDS011;55596;53.554;9.916;2024-03-22T02:54:33;32.07;;;22.87;;
17796;SDS011;55596;53.554;9.916;2024-03-22T02:56:59;29.20;;;22.93;;
17796;SDS011;55596;53.554;9.916;2024-03-22T02:59:28;29.97;;;23.17;;
17796;SDS011;55596;53.554;9.916;2024-03-22T03:01:55;29.70;;;23.03;;
17796;SDS011;55596;53.554;9.916;2024-03-22T03:04:20;33.50;;;24.70;;
17796;SDS011;55596;53.554;9.916;2024-03-22T03:06:47;32.50;;;23.33;;
17796;SDS011;55596;53.554;9.916;2024-03-22T03:09:13;32.83;;;24.37;;
17796;SDS011;55596;53.554;9.916;2024-03-22T03:11:40;28.30;;;23.27;;
17796;SDS011;55596;53.554;9.916;2024-03-22T03:14:05;29.80;;;24.63;;
17796;SDS011;55596;53.554;9.916;2024-03-22T03:16:34;32.07;;;25.33;;
17796;SDS011;55596;53.554;9.916;2024-03-22T03:18:59;30.77;;;24.07;;
17796;SDS011;55596;53.554;9.916;2024-03-22T03:21:26;32.33;;;25.67;;
17796;SDS011;55596;53.554;9.916;2024-03-22T03:23:52;38.00;;;26.87;;
17796;SDS011;55596;53.554;9.916;2024-03-22T03:26:18;33.47;;;26.00;;
17796;SDS011;55596;53.554;9.916;2024-03-22T03:28:44;32.17;;;25.83;;
17796;SDS011;55596;53.554;9.916;2024-03-22T03:31:11;33.87;;;26.43;;
17796;SDS011;55596;53.554;9.916;2024-03-22T03:33:38;34.80;;;27.57;;
17796;SDS011;55596;53.554;9.916;2024-03-22T03:36:04;36.90;;;27.03;;
17796;SDS011;55596;53.554;9.916;2024-03-22T03:38:30;37.00;;;28.73;;
17796;SDS011;55596;53.554;9.916;2024-03-22T03:40:57;38.13;;;28.43;;
17796;SDS011;55596;53.554;9.916;2024-03-22T03:43:23;34.83;;;28.03;;
17796;SDS011;55596;53.554;9.916;2024-03-22T03:45:49;38.77;;;28.97;;
17796;SDS011;55596;53.554;9.916;2024-03-22T03:48:15;36.70;;;29.67;;
17796;SDS011;55596;53.554;9.916;2024-03-22T03:50:43;39.70;;;29.60;;
17796;SDS011;55596;53.554;9.916;2024-03-22T03:53:17;33.00;;;28.30;;
17796;SDS011;55596;53.554;9.916;2024-03-22T03:55:43;41.33;;;30.03;;
17796;SDS011;55596;53.554;9.916;2024-03-22T03:58:09;41.90;;;31.67;;
17796;SDS011;55596;53.554;9.916;2024-03-22T04:00:36;41.73;;;31.33;;
17796;SDS011;55596;53.554;9.916;2024-03-22T04:03:01;38.43;;;30.70;;
17796;SDS011;55596;53.554;9.916;2024-03-22T04:05:28;40.67;;;31.20;;
17796;SDS011;55596;53.554;9.916;2024-03-22T04:07:55;38.33;;;31.00;;
17796;SDS011;55596;53.554;9.916;2024-03-22T04:10:22;37.83;;;31.03;;
17796;SDS011;55596;53.554;9.916;2024-03-22T04:12:47;43.03;;;30.93;;
17796;SDS011;55596;53.554;9.916;2024-03-22T04:15:14;40.70;;;31.00;;
17796;SDS011;55596;53.554;9.916;2024-03-22T04:17:40;37.77;;;31.87;;
17796;SDS011;55596;53.554;9.916;2024-03-22T04:20:07;41.13;;;33.10;;
17796;SDS011;55596;53.554;9.916;2024-03-22T04:22:33;40.40;;;31.80;;
17796;SDS011;55596;53.554;9.916;2024-03-22T04:25:01;38.47;;;32.10;;
17796;SDS011;55596;53.554;9.916;2024-03-22T04:27:27;39.80;;;31.03;;
17796;SDS011;55596;53.554;9.916;2024-03-22T04:29:54;39.97;;;33.43;;
17796;SDS011;55596;53.554;9.916;2024-03-22T04:32:20;39.47;;;31.80;;
17796;SDS011;55596;53.554;9.916;2024-03-22T04:34:46;40.33;;;32.93;;
17796;SDS011;55596;53.554;9.916;2024-03-22T04:37:12;42.80;;;33.27;;
17796;SDS011;55596;53.554;9.916;2024-03-22T04:39:39;42.03;;;32.60;;
17796;SDS011;55596;53.554;9.916;2024-03-22T04:42:07;43.20;;;32.43;;
17796;SDS011;55596;53.554;9.916;2024-03-22T04:44:34;42.67;;;33.27;;
17796;SDS011;55596;53.554;9.916;2024-03-22T04:47:01;43.43;;;33.17;;
17796;SDS011;55596;53.554;9.916;2024-03-22T04:49:26;42.47;;;33.63;;
17796;SDS011;55596;53.554;9.916;2024-03-22T04:51:53;41.97;;;32.53;;
17796;SDS011;55596;53.554;9.916;2024-03-22T04:54:20;45.13;;;33.57;;
17796;SDS011;55596;53.554;9.916;2024-03-22T04:56:45;43.20;;;32.23;;
17796;SDS011;55596;53.554;9.916;2024-03-22T04:59:13;42.37;;;33.23;;
17796;SDS011;55596;53.554;9.916;2024-03-22T05:01:39;44.20;;;33.57;;
17796;SDS011;55596;53.554;9.916;2024-03-22T05:04:06;44.27;;;32.63;;
17796;SDS011;55596;53.554;9.916;2024-03-22T05:06:31;42.83;;;33.43;;
17796;SDS011;55596;53.554;9.916;2024-03-22T05:08:58;43.30;;;32.83;;
17796;SDS011;55596;53.554;9.916;2024-03-22T05:11:24;45.30;;;33.23;;
17796;SDS011;55596;53.554;9.916;2024-03-22T05:13:50;43.70;;;33.83;;
17796;SDS011;55596;53.554;9.916;2024-03-22T05:16:17;41.77;;;32.83;;
17796;SDS011;55596;53.554;9.916;2024-03-22T05:18:44;43.93;;;33.27;;
17796;SDS011;55596;53.554;9.916;2024-03-22T05:21:09;45.03;;;33.20;;
17796;SDS011;55596;53.554;9.916;2024-03-22T05:23:36;44.67;;;33.93;;
17796;SDS011;55596;53.554;9.916;2024-03-22T05:26:02;44.07;;;32.67;;
17796;SDS011;55596;53.554;9.916;2024-03-22T05:28:29;45.43;;;34.37;;
17796;SDS011;55596;53.554;9.916;2024-03-22T05:30:55;44.93;;;33.67;;
17796;SDS011;55596;53.554;9.916;2024-03-22T05:33:23;43.70;;;33.17;;
17796;SDS011;55596;53.554;9.916;2024-03-22T05:35:49;46.47;;;35.00;;
17796;SDS011;55596;53.554;9.916;2024-03-22T05:38:16;43.60;;;34.03;;
17796;SDS011;55596;53.554;9.916;2024-03-22T05:40:41;49.20;;;34.37;;
17796;SDS011;55596;53.554;9.916;2024-03-22T05:43:10;46.03;;;34.87;;
17796;SDS011;55596;53.554;9.916;2024-03-22T05:45:35;47.77;;;33.80;;
17796;SDS011;55596;53.554;9.916;2024-03-22T05:48:03;46.60;;;33.67;;
17796;SDS011;55596;53.554;9.916;2024-03-22T05:50:31;46.13;;;34.60;;
17796;SDS011;55596;53.554;9.916;2024-03-22T05:52:57;43.90;;;34.50;;
17796;SDS011;55596;53.554;9.916;2024-03-22T05:55:23;49.53;;;36.03;;
17796;SDS011;55596;53.554;9.916;2024-03-22T05:57:52;45.87;;;35.93;;
17796;SDS011;55596;53.554;9.916;2024-03-22T06:00:18;49.67;;;35.57;;
17796;SDS011;55596;53.554;9.916;2024-03-22T06:02:44;52.43;;;36.30;;
17796;SDS011;55596;53.554;9.916;2024-03-22T06:05:10;50.77;;;37.27;;
17796;SDS011;55596;53.554;9.916;2024-03-22T06:07:38;49.57;;;36.17;;
17796;SDS011;55596;53.554;9.916;2024-03-22T06:10:07;51.87;;;37.07;;
17796;SDS011;55596;53.554;9.916;2024-03-22T06:12:34;50.63;;;37.03;;
17796;SDS011;55596;53.554;9.916;2024-03-22T06:15:00;56.37;;;37.53;;
17796;SDS011;55596;53.554;9.916;2024-03-22T06:17:31;48.70;;;36.73;;
17796;SDS011;55596;53.554;9.916;2024-03-22T06:19:57;50.27;;;37.03;;
17796;SDS011;55596;53.554;9.916;2024-03-22T06:22:24;48.63;;;35.50;;
17796;SDS011;55596;53.554;9.916;2024-03-22T06:24:51;50.93;;;37.80;;
17796;SDS011;55596;53.554;9.916;2024-03-22T06:27:18;50.60;;;37.27;;
17796;SDS011;55596;53.554;9.916;2024-03-22T06:29:44;52.73;;;37.60;;
17796;SDS011;55596;53.554;9.916;2024-03-22T06:32:11;48.77;;;36.57;;
17796;SDS011;55596;53.554;9.916;2024-03-22T06:34:37;48.70;;;36.97;;
17796;SDS011;55596;53.554;9.916;2024-03-22T06:37:03;50.97;;;37.20;;
17796;SDS011;55596;53.554;9.916;2024-03-22T06:39:29;48.00;;;36.87;;
17796;SDS011;55596;53.554;9.916;2024-03-22T06:41:57;51.67;;;37.53;;
17796;SDS011;55596;53.554;9.916;2024-03-22T06:44:23;47.50;;;35.73;;
17796;SDS011;55596;53.554;9.916;2024-03-22T06:46:50;55.83;;;37.77;;
17796;SDS011;55596;53.554;9.916;2024-03-22T06:49:16;49.10;;;36.80;;
17796;SDS011;55596;53.554;9.916;2024-03-22T06:51:42;52.37;;;36.87;;
17796;SDS011;55596;53.554;9.916;2024-03-22T06:54:08;46.63;;;36.67;;
17796;SDS011;55596;53.554;9.916;2024-03-22T06:56:34;51.87;;;36.50;;
17796;SDS011;55596;53.554;9.916;2024-03-22T06:59:02;49.30;;;36.33;;
17796;SDS011;55596;53.554;9.916;2024-03-22T07:01:28;47.10;;;36.10;;
17796;SDS011;55596;53.554;9.916;2024-03-22T07:03:54;50.27;;;36.07;;
17796;SDS011;55596;53.554;9.916;2024-03-22T07:06:21;48.83;;;36.13;;
17796;SDS011;55596;53.554;9.916;2024-03-22T07:08:46;48.50;;;37.23;;
17796;SDS011;55596;53.554;9.916;2024-03-22T07:11:13;50.37;;;37.20;;
17796;SDS011;55596;53.554;9.916;2024-03-22T07:13:39;49.77;;;36.23;;
17796;SDS011;55596;53.554;9.916;2024-03-22T07:16:07;50.23;;;37.47;;
17796;SDS011;55596;53.554;9.916;2024-03-22T07:18:33;50.33;;;37.77;;
17796;SDS011;55596;53.554;9.916;2024-03-22T07:20:59;51.27;;;36.53;;
17796;SDS011;55596;53.554;9.916;2024-03-22T07:23:27;50.07;;;37.80;;
17796;SDS011;55596;53.554;9.916;2024-03-22T07:25:53;48.37;;;36.43;;
17796;SDS011;55596;53.554;9.916;2024-03-22T07:28:19;48.00;;;36.37;;
17796;SDS011;55596;53.554;9.916;2024-03-22T07:30:46;50.97;;;38.23;;
17796;SDS011;55596;53.554;9.916;2024-03-22T07:33:14;53.13;;;38.73;;
17796;SDS011;55596;53.554;9.916;2024-03-22T07:35:42;54.17;;;38.07;;
17796;SDS011;55596;53.554;9.916;2024-03-22T07:38:08;51.23;;;37.97;;
17796;SDS011;55596;53.554;9.916;2024-03-22T07:40:35;51.93;;;38.03;;
17796;SDS011;55596;53.554;9.916;2024-03-22T07:43:01;54.43;;;38.43;;
17796;SDS011;55596;53.554;9.916;2024-03-22T07:45:30;50.47;;;38.13;;
17796;SDS011;55596;53.554;9.916;2024-03-22T07:47:56;52.23;;;38.87;;
17796;SDS011;55596;53.554;9.916;2024-03-22T07:50:24;53.87;;;38.67;;
17796;SDS011;55596;53.554;9.916;2024-03-22T07:52:50;51.00;;;39.73;;
17796;SDS011;55596;53.554;9.916;2024-03-22T07:55:17;53.83;;;39.13;;
17796;SDS011;55596;53.554;9.916;2024-03-22T07:57:43;52.87;;;39.90;;
17796;SDS011;55596;53.554;9.916;2024-03-22T08:00:11;59.20;;;39.83;;
17796;SDS011;55596;53.554;9.916;2024-03-22T08:02:37;56.87;;;41.03;;
17796;SDS011;55596;53.554;9.916;2024-03-22T08:05:04;61.80;;;40.67;;
17796;SDS011;55596;53.554;9.916;2024-03-22T08:07:32;58.03;;;41.13;;
17796;SDS011;55596;53.554;9.916;2024-03-22T08:09:59;59.33;;;41.43;;
17796;SDS011;55596;53.554;9.916;2024-03-22T08:12:26;56.77;;;41.87;;
17796;SDS011;55596;53.554;9.916;2024-03-22T08:14:53;62.60;;;41.27;;
17796;SDS011;55596;53.554;9.916;2024-03-22T08:17:20;63.43;;;43.63;;
17796;SDS011;55596;53.554;9.916;2024-03-22T08:19:47;67.90;;;46.67;;
17796;SDS011;55596;53.554;9.916;2024-03-22T08:22:13;72.40;;;48.67;;
17796;SDS011;55596;53.554;9.916;2024-03-22T08:24:41;71.37;;;46.30;;
17796;SDS011;55596;53.554;9.916;2024-03-22T08:27:06;84.83;;;49.00;;
17796;SDS011;55596;53.554;9.916;2024-03-22T08:29:33;86.63;;;50.90;;
17796;SDS011;55596;53.554;9.916;2024-03-22T08:31:59;86.17;;;52.23;;
17796;SDS011;55596;53.554;9.916;2024-03-22T08:34:28;97.93;;;53.40;;
17796;SDS011;55596;53.554;9.916;2024-03-22T08:36:53;89.73;;;52.53;;
17796;SDS011;55596;53.554;9.916;2024-03-22T08:39:20;93.17;;;53.80;;
17796;SDS011;55596;53.554;9.916;2024-03-22T08:41:47;94.83;;;53.40;;
17796;SDS011;55596;53.554;9.916;2024-03-22T08:44:14;90.03;;;51.80;;
17796;SDS011;55596;53.554;9.916;2024-03-22T08:46:40;97.27;;;54.80;;
17796;SDS011;55596;53.554;9.916;2024-03-22T08:49:06;101.87;;;54.57;;
17796;SDS011;55596;53.554;9.916;2024-03-22T08:51:32;104.17;;;55.50;;
17796;SDS011;55596;53.554;9.916;2024-03-22T08:53:58;99.57;;;55.00;;
17796;SDS011;55596;53.554;9.916;2024-03-22T08:56:25;101.37;;;54.80;;
17796;SDS011;55596;53.554;9.916;2024-03-22T08:58:53;116.10;;;58.63;;
17796;SDS011;55596;53.554;9.916;2024-03-22T09:01:20;110.27;;;57.10;;
17796;SDS011;55596;53.554;9.916;2024-03-22T09:03:47;116.63;;;57.53;;
17796;SDS011;55596;53.554;9.916;2024-03-22T09:06:16;123.57;;;59.30;;
17796;SDS011;55596;53.554;9.916;2024-03-22T09:08:42;124.97;;;60.27;;
17796;SDS011;55596;53.554;9.916;2024-03-22T09:11:08;121.30;;;59.97;;
17796;SDS011;55596;53.554;9.916;2024-03-22T09:13:34;124.87;;;60.77;;
17796;SDS011;55596;53.554;9.916;2024-03-22T09:16:01;117.00;;;58.53;;
17796;SDS011;55596;53.554;9.916;2024-03-22T09:18:28;121.20;;;59.60;;
17796;SDS011;55596;53.554;9.916;2024-03-22T09:20:54;116.27;;;60.77;;
17796;SDS011;55596;53.554;9.916;2024-03-22T09:23:21;121.07;;;61.30;;
17796;SDS011;55596;53.554;9.916;2024-03-22T09:25:47;119.33;;;59.47;;
17796;SDS011;55596;53.554;9.916;2024-03-22T09:28:14;115.30;;;56.07;;
17796;SDS011;55596;53.554;9.916;2024-03-22T09:30:39;104.97;;;56.40;;
17796;SDS011;55596;53.554;9.916;2024-03-22T09:33:09;117.07;;;56.23;;
17796;SDS011;55596;53.554;9.916;2024-03-22T09:35:36;102.07;;;53.17;;
17796;SDS011;55596;53.554;9.916;2024-03-22T09:38:03;101.83;;;52.43;;
17796;SDS011;55596;53.554;9.916;2024-03-22T09:40:28;101.23;;;52.20;;
17796;SDS011;55596;53.554;9.916;2024-03-22T09:42:56;92.90;;;48.90;;
17796;SDS011;55596;53.554;9.916;2024-03-22T09:45:27;97.03;;;51.23;;
17796;SDS011;55596;53.554;9.916;2024-03-22T09:47:55;100.80;;;50.43;;
17796;SDS011;55596;53.554;9.916;2024-03-22T09:50:23;96.10;;;49.37;;
17796;SDS011;55596;53.554;9.916;2024-03-22T09:52:51;97.87;;;49.83;;
17796;SDS011;55596;53.554;9.916;2024-03-22T09:55:17;99.87;;;49.60;;
17796;SDS011;55596;53.554;9.916;2024-03-22T09:57:47;105.43;;;50.33;;
17796;SDS011;55596;53.554;9.916;2024-03-22T10:00:15;100.80;;;50.23;;
17796;SDS011;55596;53.554;9.916;2024-03-22T10:02:45;105.10;;;51.50;;
17796;SDS011;55596;53.554;9.916;2024-03-22T10:05:11;112.67;;;51.57;;
17796;SDS011;55596;53.554;9.916;2024-03-22T10:07:39;114.20;;;53.20;;
17796;SDS011;55596;53.554;9.916;2024-03-22T10:10:06;118.63;;;51.57;;
17796;SDS011;55596;53.554;9.916;2024-03-22T10:12:33;108.33;;;50.20;;
17796;SDS011;55596;53.554;9.916;2024-03-22T10:14:59;111.37;;;51.40;;
17796;SDS011;55596;53.554;9.916;2024-03-22T10:17:26;122.20;;;51.97;;
17796;SDS011;55596;53.554;9.916;2024-03-22T10:19:53;105.10;;;50.27;;
17796;SDS011;55596;53.554;9.916;2024-03-22T10:22:20;103.90;;;49.20;;
17796;SDS011;55596;53.554;9.916;2024-03-22T10:24:47;101.40;;;48.70;;
17796;SDS011;55596;53.554;9.916;2024-03-22T10:27:14;101.23;;;46.47;;
17796;SDS011;55596;53.554;9.916;2024-03-22T10:29:40;107.27;;;54.50;;
17796;SDS011;55596;53.554;9.916;2024-03-22T10:32:07;99.03;;;47.33;;
17796;SDS011;55596;53.554;9.916;2024-03-22T10:34:35;84.07;;;42.53;;
17796;SDS011;55596;53.554;9.916;2024-03-22T10:37:01;89.33;;;42.67;;
17796;SDS011;55596;53.554;9.916;2024-03-22T10:39:28;77.87;;;38.33;;
17796;SDS011;55596;53.554;9.916;2024-03-22T10:41:58;81.10;;;40.53;;
17796;SDS011;55596;53.554;9.916;2024-03-22T10:44:24;80.60;;;38.10;;
17796;SDS011;55596;53.554;9.916;2024-03-22T10:46:50;65.43;;;33.13;;
17796;SDS011;55596;53.554;9.916;2024-03-22T10:49:20;62.60;;;31.00;;
17796;SDS011;55596;53.554;9.916;2024-03-22T10:51:47;55.93;;;29.33;;
17796;SDS011;55596;53.554;9.916;2024-03-22T10:54:17;57.17;;;29.07;;
17796;SDS011;55596;53.554;9.916;2024-03-22T10:56:45;52.20;;;27.00;;
17796;SDS011;55596;53.554;9.916;2024-03-22T10:59:14;52.27;;;27.17;;
17796;SDS011;55596;53.554;9.916;2024-03-22T11:01:45;42.17;;;24.03;;
17796;SDS011;55596;53.554;9.916;2024-03-22T11:04:12;43.67;;;23.67;;
17796;SDS011;55596;53.554;9.916;2024-03-22T11:06:40;41.90;;;23.00;;
17796;SDS011;55596;53.554;9.916;2024-03-22T11:09:07;37.67;;;22.27;;
17796;SDS011;55596;53.554;9.916;2024-03-22T11:11:35;42.33;;;21.83;;
17796;SDS011;55596;53.554;9.916;2024-03-22T11:14:03;38.73;;;20.90;;
17796;SDS011;55596;53.554;9.916;2024-03-22T11:16:30;38.13;;;20.80;;
17796;SDS011;55596;53.554;9.916;2024-03-22T11:18:56;35.37;;;19.73;;
17796;SDS011;55596;53.554;9.916;2024-03-22T11:21:22;34.40;;;20.50;;
17796;SDS011;55596;53.554;9.916;2024-03-22T11:23:49;32.97;;;19.53;;
17796;SDS011;55596;53.554;9.916;2024-03-22T11:26:15;32.93;;;19.53;;
17796;SDS011;55596;53.554;9.916;2024-03-22T11:28:42;34.93;;;20.20;;
17796;SDS011;55596;53.554;9.916;2024-03-22T11:31:08;35.80;;;20.53;;
17796;SDS011;55596;53.554;9.916;2024-03-22T11:33:36;33.33;;;20.53;;
17796;SDS011;55596;53.554;9.916;2024-03-22T11:36:02;31.67;;;19.33;;
17796;SDS011;55596;53.554;9.916;2024-03-22T11:38:31;36.83;;;20.33;;
17796;SDS011;55596;53.554;9.916;2024-03-22T11:40:57;34.17;;;20.93;;
17796;SDS011;55596;53.554;9.916;2024-03-22T11:43:25;36.10;;;21.27;;
17796;SDS011;55596;53.554;9.916;2024-03-22T11:45:52;31.93;;;20.43;;
17796;SDS011;55596;53.554;9.916;2024-03-22T11:48:19;29.83;;;19.77;;
17796;SDS011;55596;53.554;9.916;2024-03-22T11:50:46;38.40;;;21.13;;
17796;SDS011;55596;53.554;9.916;2024-03-22T11:53:15;31.63;;;21.03;;
17796;SDS011;55596;53.554;9.916;2024-03-22T11:55:41;33.40;;;20.73;;
17796;SDS011;55596;53.554;9.916;2024-03-22T11:58:08;31.50;;;21.10;;
17796;SDS011;55596;53.554;9.916;2024-03-22T12:00:34;31.30;;;20.87;;
17796;SDS011;55596;53.554;9.916;2024-03-22T12:03:01;33.20;;;20.53;;
17796;SDS011;55596;53.554;9.916;2024-03-22T12:05:29;26.33;;;18.07;;
17796;SDS011;55596;53.554;9.916;2024-03-22T12:07:57;26.47;;;18.00;;
17796;SDS011;55596;53.554;9.916;2024-03-22T12:10:23;27.40;;;16.63;;
17796;SDS011;55596;53.554;9.916;2024-03-22T12:12:50;26.00;;;17.13;;
17796;SDS011;55596;53.554;9.916;2024-03-22T12:15:16;26.63;;;17.57;;
17796;SDS011;55596;53.554;9.916;2024-03-22T12:17:42;24.33;;;16.40;;
17796;SDS011;55596;53.554;9.916;2024-03-22T12:20:08;23.33;;;16.63;;
17796;SDS011;55596;53.554;9.916;2024-03-22T12:22:35;21.87;;;15.20;;
17796;SDS011;55596;53.554;9.916;2024-03-22T12:25:02;22.23;;;15.67;;
17796;SDS011;55596;53.554;9.916;2024-03-22T12:27:30;20.00;;;14.87;;
17796;SDS011;55596;53.554;9.916;2024-03-22T12:29:56;21.40;;;15.67;;
17796;SDS011;55596;53.554;9.916;2024-03-22T12:32:23;23.07;;;15.90;;
17796;SDS011;55596;53.554;9.916;2024-03-22T12:34:50;24.07;;;15.27;;
17796;SDS011;55596;53.554;9.916;2024-03-22T12:37:16;21.13;;;13.97;;
17796;SDS011;55596;53.554;9.916;2024-03-22T12:39:42;22.23;;;15.00;;
17796;SDS011;55596;53.554;9.916;2024-03-22T12:42:10;23.77;;;15.07;;
17796;SDS011;55596;53.554;9.916;2024-03-22T12:44:36;20.47;;;13.87;;
17796;SDS011;55596;53.554;9.916;2024-03-22T12:47:02;19.27;;;12.93;;
17796;SDS011;55596;53.554;9.916;2024-03-22T12:49:28;17.53;;;11.90;;
17796;SDS011;55596;53.554;9.916;2024-03-22T12:51:55;16.43;;;11.07;;
17796;SDS011;55596;53.554;9.916;2024-03-22T12:54:21;15.87;;;10.43;;
17796;SDS011;55596;53.554;9.916;2024-03-22T12:56:48;17.23;;;10.20;;
17796;SDS011;55596;53.554;9.916;2024-03-22T12:59:15;16.60;;;10.67;;
17796;SDS011;55596;53.554;9.916;2024-03-22T13:01:42;13.33;;;10.67;;
17796;SDS011;55596;53.554;9.916;2024-03-22T13:04:08;10.60;;;8.97;;
17796;SDS011;55596;53.554;9.916;2024-03-22T13:06:35;7.97;;;6.40;;
17796;SDS011;55596;53.554;9.916;2024-03-22T13:09:01;7.20;;;5.70;;
17796;SDS011;55596;53.554;9.916;2024-03-22T13:11:29;7.37;;;5.33;;
17796;SDS011;55596;53.554;9.916;2024-03-22T13:13:55;6.90;;;6.07;;
17796;SDS011;55596;53.554;9.916;2024-03-22T13:16:23;7.53;;;6.77;;
17796;SDS011;55596;53.554;9.916;2024-03-22T13:18:49;10.40;;;7.53;;
17796;SDS011;55596;53.554;9.916;2024-03-22T13:21:15;8.83;;;7.93;;
17796;SDS011;55596;53.554;9.916;2024-03-22T13:23:41;8.10;;;7.30;;
17796;SDS011;55596;53.554;9.916;2024-03-22T13:26:08;8.90;;;8.00;;
17796;SDS011;55596;53.554;9.916;2024-03-22T13:28:33;10.27;;;9.27;;
17796;SDS011;55596;53.554;9.916;2024-03-22T13:31:01;9.70;;;8.80;;
17796;SDS011;55596;53.554;9.916;2024-03-22T13:33:29;9.97;;;8.60;;
17796;SDS011;55596;53.554;9.916;2024-03-22T13:35:56;8.03;;;6.30;;
17796;SDS011;55596;53.554;9.916;2024-03-22T13:38:22;7.73;;;6.20;;
17796;SDS011;55596;53.554;9.916;2024-03-22T13:40:55;5.57;;;4.70;;
17796;SDS011;55596;53.554;9.916;2024-03-22T13:43:21;6.80;;;4.60;;
17796;SDS011;55596;53.554;9.916;2024-03-22T13:45:48;4.40;;;4.00;;
17796;SDS011;55596;53.554;9.916;2024-03-22T13:48:18;4.30;;;3.83;;
17796;SDS011;55596;53.554;9.916;2024-03-22T13:50:50;4.07;;;3.67;;
17796;SDS011;55596;53.554;9.916;2024-03-22T13:53:16;5.90;;;4.00;;
17796;SDS011;55596;53.554;9.916;2024-03-22T13:55:43;5.50;;;4.17;;
17796;SDS011;55596;53.554;9.916;2024-03-22T13:58:09;4.00;;;3.60;;
17796;SDS011;55596;53.554;9.916;2024-03-22T14:00:35;4.10;;;3.80;;
17796;SDS011;55596;53.554;9.916;2024-03-22T14:03:01;4.03;;;3.60;;
17796;SDS011;55596;53.554;9.916;2024-03-22T14:05:28;5.07;;;3.77;;
17796;SDS011;55596;53.554;9.916;2024-03-22T14:07:55;3.60;;;3.30;;
17796;SDS011;55596;53.554;9.916;2024-03-22T14:10:22;4.10;;;3.70;;
17796;SDS011;55596;53.554;9.916;2024-03-22T14:12:47;3.93;;;3.53;;
17796;SDS011;55596;53.554;9.916;2024-03-22T14:15:15;4.73;;;3.80;;
17796;SDS011;55596;53.554;9.916;2024-03-22T14:17:41;5.27;;;3.53;;
17796;SDS011;55596;53.554;9.916;2024-03-22T14:20:08;4.20;;;3.20;;